createdAt,value
2019-05-11T00:00:24.430Z,89.60
2019-05-11T00:01:00.270Z,89.43
2019-05-11T00:01:36.154Z,89.33
2019-05-11T00:02:12.025Z,89.10
2019-05-11T00:02:49.567Z,88.88
2019-05-11T00:03:25.572Z,88.67
2019-05-11T00:04:01.579Z,88.37
2019-05-11T00:04:37.780Z,88.13
2019-05-11T00:05:13.859Z,87.35
2019-05-11T00:05:49.773Z,86.78
2019-05-11T00:06:25.715Z,86.54
2019-05-11T00:07:01.814Z,86.17
2019-05-11T00:07:37.889Z,85.77
2019-05-11T00:08:13.865Z,85.44
2019-05-11T00:08:49.872Z,85.11
2019-05-11T00:09:25.959Z,84.79
2019-05-11T00:10:01.811Z,84.42
2019-05-11T00:10:39.983Z,84.08
2019-05-11T00:11:15.836Z,83.77
2019-05-11T00:11:51.692Z,83.48
2019-05-11T00:12:27.547Z,83.20
2019-05-11T00:13:04.689Z,82.97
2019-05-11T00:13:40.565Z,82.71
2019-05-11T00:14:16.547Z,82.44
2019-05-11T00:14:52.537Z,82.16
2019-05-11T00:15:28.422Z,81.86
2019-05-11T00:16:04.297Z,81.59
2019-05-11T00:16:40.205Z,81.35
2019-05-11T00:17:16.075Z,81.10
2019-05-11T00:17:52.305Z,81.06
2019-05-11T00:18:28.144Z,81.18
2019-05-11T00:19:04.504Z,81.43
2019-05-11T00:19:40.471Z,81.55
2019-05-11T00:20:16.471Z,81.72
2019-05-11T00:20:52.320Z,81.94
2019-05-11T00:21:28.160Z,81.97
2019-05-11T00:22:04.429Z,81.95
2019-05-11T00:22:40.311Z,82.00
2019-05-11T00:23:16.224Z,82.20
2019-05-11T00:23:52.217Z,82.35
2019-05-11T00:24:29.645Z,82.56
2019-05-11T00:25:05.969Z,82.74
2019-05-11T00:25:41.865Z,82.55
2019-05-11T00:26:18.273Z,82.55
2019-05-11T00:26:54.208Z,83.11
2019-05-11T00:27:30.111Z,83.22
2019-05-11T00:28:06.098Z,83.32
2019-05-11T00:28:42.120Z,83.39
2019-05-11T00:29:17.987Z,83.46
2019-05-11T00:29:53.882Z,83.51
2019-05-11T00:30:29.712Z,83.55
2019-05-11T00:31:05.585Z,83.65
2019-05-11T00:31:41.443Z,83.68
2019-05-11T00:32:17.341Z,83.69
2019-05-11T00:32:53.249Z,83.62
2019-05-11T00:33:29.068Z,83.62
2019-05-11T00:34:05.073Z,83.59
2019-05-11T00:34:40.967Z,83.58
2019-05-11T00:35:16.781Z,83.50
2019-05-11T00:35:52.718Z,83.53
2019-05-11T00:36:28.595Z,83.57
2019-05-11T00:37:04.440Z,83.66
2019-05-11T00:37:40.295Z,83.69
2019-05-11T00:38:17.620Z,83.68
2019-05-11T00:38:53.595Z,83.70
2019-05-11T00:39:29.667Z,83.70
2019-05-11T00:40:13.814Z,83.71
2019-05-11T00:40:43.248Z,83.73
2019-05-11T00:41:19.127Z,83.75
2019-05-11T00:41:56.250Z,83.72
2019-05-11T00:42:32.138Z,83.69
2019-05-11T00:43:08.052Z,83.66
2019-05-11T00:43:44.451Z,83.64
2019-05-11T00:44:20.377Z,83.61
2019-05-11T00:44:56.275Z,83.58
2019-05-11T00:45:32.256Z,83.55
2019-05-11T00:46:08.133Z,83.45
2019-05-11T00:46:44.012Z,83.21
2019-05-11T00:47:19.868Z,83.15
2019-05-11T00:47:56.080Z,83.05
2019-05-11T00:48:32.855Z,82.89
2019-05-11T00:49:08.678Z,82.81
2019-05-11T00:49:44.541Z,82.74
2019-05-11T00:50:20.383Z,82.67
2019-05-11T00:50:56.209Z,82.68
2019-05-11T00:51:32.034Z,82.68
2019-05-11T00:52:07.880Z,82.72
2019-05-11T00:52:43.728Z,82.69
2019-05-11T00:53:19.623Z,82.59
2019-05-11T00:53:55.480Z,82.48
2019-05-11T00:54:31.367Z,82.36
2019-05-11T00:55:07.341Z,82.28
2019-05-11T00:55:43.205Z,82.25
2019-05-11T00:56:19.052Z,81.63
2019-05-11T00:56:54.857Z,81.63
2019-05-11T00:57:30.714Z,81.93
2019-05-11T00:58:06.676Z,81.81
2019-05-11T00:58:42.658Z,81.67
2019-05-11T00:59:21.693Z,81.46
2019-05-11T00:59:56.124Z,81.22
2019-05-11T01:00:31.980Z,80.79
2019-05-11T01:01:08.037Z,80.09
2019-05-11T01:01:43.881Z,78.17
2019-05-11T01:02:20.791Z,78.17
2019-05-11T01:02:56.786Z,78.29
2019-05-11T01:03:32.635Z,78.01
2019-05-11T01:04:08.509Z,78.01
2019-05-11T01:04:44.392Z,76.68
2019-05-11T01:05:20.442Z,76.59
2019-05-11T01:05:56.343Z,76.59
2019-05-11T01:06:32.283Z,75.89
2019-05-11T01:07:11.600Z,74.73
2019-05-11T01:07:47.644Z,73.99
2019-05-11T01:08:23.466Z,73.99
2019-05-11T01:08:59.475Z,74.92
2019-05-11T01:09:35.443Z,74.14
2019-05-11T01:10:23.826Z,74.14
2019-05-11T01:10:49.207Z,73.81
2019-05-11T01:11:25.148Z,73.84
2019-05-11T01:12:00.991Z,73.58
2019-05-11T01:12:36.845Z,73.38
2019-05-11T01:13:12.731Z,72.92
2019-05-11T01:13:49.808Z,72.57
2019-05-11T01:14:25.634Z,72.57
2019-05-11T01:15:01.517Z,72.40
2019-05-11T01:15:37.334Z,72.66
2019-05-11T01:16:13.219Z,72.94
2019-05-11T01:16:49.101Z,73.02
2019-05-11T01:17:25.008Z,73.07
2019-05-11T01:18:00.903Z,72.97
2019-05-11T01:18:36.788Z,72.83
2019-05-11T01:19:12.633Z,72.79
2019-05-11T01:19:48.497Z,72.65
2019-05-11T01:20:24.348Z,72.32
2019-05-11T01:21:00.207Z,72.32
2019-05-11T01:21:36.560Z,72.16
2019-05-11T01:22:12.667Z,71.80
2019-05-11T01:22:48.556Z,71.19
2019-05-11T01:23:24.489Z,71.19
2019-05-11T01:24:00.453Z,70.64
2019-05-11T01:24:36.316Z,70.41
2019-05-11T01:25:12.263Z,70.25
2019-05-11T01:25:48.165Z,70.09
2019-05-11T01:26:24.222Z,69.84
2019-05-11T01:27:00.098Z,69.71
2019-05-11T01:27:36.139Z,69.43
2019-05-11T01:28:12.003Z,69.12
2019-05-11T01:28:47.886Z,68.88
2019-05-11T01:29:23.700Z,68.64
2019-05-11T01:29:59.569Z,67.99
2019-05-11T01:30:38.543Z,67.63
2019-05-11T01:31:13.089Z,67.13
2019-05-11T01:31:49.035Z,66.82
2019-05-11T01:32:25.079Z,66.46
2019-05-11T01:33:01.034Z,66.18
2019-05-11T01:33:37.055Z,66.00
2019-05-11T01:34:12.907Z,65.80
2019-05-11T01:34:48.758Z,65.63
2019-05-11T01:35:24.578Z,65.22
2019-05-11T01:36:00.418Z,64.84
2019-05-11T01:36:36.269Z,64.64
2019-05-11T01:37:12.267Z,64.37
2019-05-11T01:37:48.114Z,64.26
2019-05-11T01:38:24.009Z,63.82
2019-05-11T01:38:59.876Z,63.19
2019-05-11T01:39:35.740Z,62.93
2019-05-11T01:40:11.827Z,62.81
2019-05-11T01:40:58.161Z,62.80
2019-05-11T01:41:25.413Z,62.56
2019-05-11T01:42:01.284Z,62.51
2019-05-11T01:42:37.211Z,62.39
2019-05-11T01:43:13.046Z,62.39
2019-05-11T01:43:48.988Z,62.40
2019-05-11T01:44:24.915Z,62.39
2019-05-11T01:45:00.777Z,62.35
2019-05-11T01:45:37.024Z,62.17
2019-05-11T01:46:12.916Z,62.18
2019-05-11T01:46:48.740Z,62.14
2019-05-11T01:47:24.586Z,62.16
2019-05-11T01:48:00.470Z,61.87
2019-05-11T01:48:36.321Z,61.50
2019-05-11T01:49:12.250Z,61.22
2019-05-11T01:49:48.102Z,60.96
2019-05-11T01:50:23.959Z,60.82
2019-05-11T01:50:59.856Z,60.81
2019-05-11T01:51:35.719Z,60.96
2019-05-11T01:52:11.582Z,61.12
2019-05-11T01:52:47.394Z,61.05
2019-05-11T01:53:23.387Z,60.84
2019-05-11T01:53:59.305Z,60.76
2019-05-11T01:54:37.066Z,60.46
2019-05-11T01:55:13.171Z,59.87
2019-05-11T01:55:49.172Z,59.91
2019-05-11T01:56:25.005Z,59.68
2019-05-11T01:57:00.860Z,59.58
2019-05-11T01:57:36.746Z,59.49
2019-05-11T01:58:12.567Z,59.07
2019-05-11T01:58:48.385Z,59.13
2019-05-11T01:59:24.235Z,59.02
2019-05-11T02:00:00.111Z,59.05
2019-05-11T02:00:36.053Z,59.06
2019-05-11T02:01:11.953Z,59.28
2019-05-11T02:01:47.808Z,59.37
2019-05-11T02:02:23.648Z,59.69
2019-05-11T02:02:59.608Z,60.09
2019-05-11T02:03:35.440Z,60.49
2019-05-11T02:04:11.351Z,60.69
2019-05-11T02:04:49.130Z,60.90
2019-05-11T02:05:33.896Z,60.97
2019-05-11T02:06:09.853Z,60.86
2019-05-11T02:06:45.638Z,60.85
2019-05-11T02:07:21.496Z,60.80
2019-05-11T02:07:57.523Z,60.61
2019-05-11T02:08:33.341Z,60.46
2019-05-11T02:09:09.294Z,60.23
2019-05-11T02:09:46.997Z,60.12
2019-05-11T02:10:22.881Z,60.10
2019-05-11T02:11:13.763Z,60.16
2019-05-11T02:11:36.485Z,60.16
2019-05-11T02:12:12.336Z,60.35
2019-05-11T02:12:48.267Z,60.20
2019-05-11T02:13:24.766Z,60.07
2019-05-11T02:14:00.566Z,59.96
2019-05-11T02:14:36.540Z,59.76
2019-05-11T02:15:12.428Z,59.50
2019-05-11T02:15:48.305Z,59.32
2019-05-11T02:16:24.186Z,59.30
2019-05-11T02:17:00.015Z,59.09
2019-05-11T02:17:35.865Z,58.95
2019-05-11T02:18:11.737Z,59.03
2019-05-11T02:18:47.913Z,59.07
2019-05-11T02:19:23.772Z,58.84
2019-05-11T02:20:00.069Z,58.49
2019-05-11T02:20:35.931Z,58.07
2019-05-11T02:21:11.827Z,56.97
2019-05-11T02:21:47.730Z,56.77
2019-05-11T02:22:23.879Z,56.71
2019-05-11T02:22:59.744Z,56.66
2019-05-11T02:23:35.587Z,56.66
2019-05-11T02:24:11.476Z,56.63
2019-05-11T02:24:47.323Z,56.48
2019-05-11T02:25:23.207Z,56.45
2019-05-11T02:25:59.451Z,56.16
2019-05-11T02:26:35.295Z,56.11
2019-05-11T02:27:11.156Z,56.01
2019-05-11T02:27:47.030Z,56.08
2019-05-11T02:28:22.836Z,56.37
2019-05-11T02:28:58.688Z,56.48
2019-05-11T02:29:34.524Z,56.74
2019-05-11T02:30:10.454Z,56.87
2019-05-11T02:30:46.342Z,57.05
2019-05-11T02:31:22.368Z,57.21
2019-05-11T02:31:58.219Z,57.38
2019-05-11T02:32:35.432Z,57.70
2019-05-11T02:33:11.283Z,57.88
2019-05-11T02:33:47.223Z,58.15
2019-05-11T02:34:23.203Z,58.48
2019-05-11T02:35:01.008Z,58.73
2019-05-11T02:35:36.841Z,59.08
2019-05-11T02:36:12.684Z,59.18
2019-05-11T02:36:48.552Z,59.18
2019-05-11T02:37:24.402Z,59.23
2019-05-11T02:38:00.298Z,59.08
2019-05-11T02:38:36.356Z,58.97
2019-05-11T02:39:12.176Z,58.93
2019-05-11T02:39:48.038Z,58.96
2019-05-11T02:40:23.989Z,58.89
2019-05-11T02:40:59.827Z,58.51
2019-05-11T02:41:37.412Z,58.54
2019-05-11T02:42:13.492Z,58.68
2019-05-11T02:42:49.400Z,58.33
2019-05-11T02:43:26.031Z,58.19
2019-05-11T02:44:01.985Z,58.14
2019-05-11T02:44:37.853Z,58.25
2019-05-11T02:45:13.863Z,58.40
2019-05-11T02:45:49.832Z,58.36
2019-05-11T02:46:26.693Z,57.96
2019-05-11T02:47:02.697Z,57.59
2019-05-11T02:47:38.642Z,57.54
2019-05-11T02:48:14.501Z,57.36
2019-05-11T02:48:50.494Z,57.39
2019-05-11T02:49:28.152Z,57.45
2019-05-11T02:50:06.456Z,57.46
2019-05-11T02:50:42.454Z,57.33
2019-05-11T02:51:18.392Z,57.51
2019-05-11T02:51:54.395Z,57.42
2019-05-11T02:52:30.363Z,57.20
2019-05-11T02:53:06.389Z,57.11
2019-05-11T02:53:42.618Z,56.71
2019-05-11T02:54:18.593Z,56.45
2019-05-11T02:54:55.103Z,56.08
2019-05-11T02:55:31.359Z,55.88
2019-05-11T02:56:07.189Z,55.37
2019-05-11T02:56:43.007Z,55.02
2019-05-11T02:57:18.835Z,54.89
2019-05-11T02:57:57.283Z,54.90
2019-05-11T02:58:33.121Z,54.91
2019-05-11T02:59:09.051Z,54.73
2019-05-11T02:59:44.892Z,54.56
2019-05-11T03:00:24.127Z,54.43
2019-05-11T03:00:59.994Z,54.54
2019-05-11T03:01:38.468Z,54.79
2019-05-11T03:02:14.280Z,55.01
2019-05-11T03:02:50.147Z,55.41
2019-05-11T03:03:26.070Z,55.53
2019-05-11T03:04:03.289Z,55.74
2019-05-11T03:04:39.100Z,56.02
2019-05-11T03:05:14.978Z,56.05
2019-05-11T03:05:50.821Z,55.91
2019-05-11T03:06:26.723Z,55.64
2019-05-11T03:07:02.585Z,55.54
2019-05-11T03:07:38.433Z,55.71
2019-05-11T03:08:14.466Z,56.08
2019-05-11T03:08:50.527Z,56.45
2019-05-11T03:09:26.431Z,56.33
2019-05-11T03:10:02.268Z,56.18
2019-05-11T03:10:38.113Z,56.00
2019-05-11T03:11:13.923Z,55.99
2019-05-11T03:11:55.656Z,55.86
2019-05-11T03:12:27.613Z,55.56
2019-05-11T03:13:03.578Z,55.09
2019-05-11T03:13:39.418Z,55.09
2019-05-11T03:14:18.354Z,55.12
2019-05-11T03:14:54.209Z,55.09
2019-05-11T03:15:30.435Z,55.16
2019-05-11T03:16:06.407Z,55.49
2019-05-11T03:16:42.233Z,55.71
2019-05-11T03:17:21.839Z,55.62
2019-05-11T03:17:57.717Z,55.50
2019-05-11T03:18:33.561Z,55.77
2019-05-11T03:19:09.468Z,55.89
2019-05-11T03:19:45.300Z,56.08
2019-05-11T03:20:23.188Z,56.62
2019-05-11T03:20:59.052Z,56.88
2019-05-11T03:21:34.987Z,56.90
2019-05-11T03:22:10.851Z,56.88
2019-05-11T03:22:47.187Z,56.74
2019-05-11T03:23:23.039Z,56.85
2019-05-11T03:23:58.906Z,57.20
2019-05-11T03:24:34.741Z,57.55
2019-05-11T03:25:10.583Z,57.70
2019-05-11T03:25:46.387Z,57.92
2019-05-11T03:26:22.344Z,57.78
2019-05-11T03:26:58.302Z,57.71
2019-05-11T03:27:34.145Z,57.81
2019-05-11T03:28:10.026Z,58.09
2019-05-11T03:28:45.890Z,58.32
2019-05-11T03:29:21.752Z,58.50
2019-05-11T03:30:01.096Z,58.48
2019-05-11T03:30:36.054Z,58.46
2019-05-11T03:31:11.991Z,58.85
2019-05-11T03:31:47.874Z,59.19
2019-05-11T03:32:23.761Z,59.34
2019-05-11T03:32:59.708Z,59.43
2019-05-11T03:33:35.658Z,59.84
2019-05-11T03:34:11.570Z,60.04
2019-05-11T03:34:47.416Z,60.15
2019-05-11T03:35:23.336Z,60.27
2019-05-11T03:35:59.203Z,59.80
2019-05-11T03:36:35.026Z,59.66
2019-05-11T03:37:10.850Z,59.69
2019-05-11T03:37:46.815Z,59.82
2019-05-11T03:38:22.808Z,59.88
2019-05-11T03:38:58.618Z,60.08
2019-05-11T03:39:34.430Z,59.98
2019-05-11T03:40:10.270Z,60.14
2019-05-11T03:40:48.728Z,60.16
2019-05-11T03:41:24.895Z,60.32
2019-05-11T03:42:14.276Z,60.37
2019-05-11T03:42:38.900Z,60.44
2019-05-11T03:43:14.892Z,60.67
2019-05-11T03:43:50.724Z,60.76
2019-05-11T03:44:26.649Z,60.95
2019-05-11T03:45:02.601Z,61.12
2019-05-11T03:45:38.450Z,61.12
2019-05-11T03:46:14.315Z,61.27
2019-05-11T03:46:50.161Z,61.50
2019-05-11T03:47:26.078Z,61.72
2019-05-11T03:48:01.925Z,61.93
2019-05-11T03:48:37.838Z,62.05
2019-05-11T03:49:13.778Z,62.20
2019-05-11T03:49:49.654Z,62.37
2019-05-11T03:50:25.495Z,62.60
2019-05-11T03:51:01.354Z,62.74
2019-05-11T03:51:37.166Z,63.00
2019-05-11T03:52:13.141Z,63.01
2019-05-11T03:52:50.218Z,62.91
2019-05-11T03:53:26.053Z,62.87
2019-05-11T03:54:01.896Z,62.74
2019-05-11T03:54:37.751Z,62.68
2019-05-11T03:55:13.803Z,62.80
2019-05-11T03:55:50.521Z,62.94
2019-05-11T03:56:26.367Z,63.11
2019-05-11T03:57:02.261Z,63.14
2019-05-11T03:57:38.058Z,63.11
2019-05-11T03:58:13.913Z,62.92
2019-05-11T03:58:49.745Z,62.67
2019-05-11T03:59:25.662Z,62.48
2019-05-11T04:00:01.492Z,62.39
2019-05-11T04:00:37.323Z,62.31
2019-05-11T04:01:13.165Z,62.27
2019-05-11T04:01:49.007Z,62.29
2019-05-11T04:02:24.872Z,62.26
2019-05-11T04:03:00.733Z,62.25
2019-05-11T04:03:36.602Z,62.06
2019-05-11T04:04:16.305Z,61.92
2019-05-11T04:04:50.269Z,61.84
2019-05-11T04:05:26.097Z,61.95
2019-05-11T04:06:01.940Z,61.98
2019-05-11T04:06:37.749Z,62.12
2019-05-11T04:07:14.022Z,62.45
2019-05-11T04:07:49.888Z,62.65
2019-05-11T04:08:25.743Z,62.65
2019-05-11T04:09:01.796Z,61.70
2019-05-11T04:09:37.642Z,61.15
2019-05-11T04:10:13.632Z,61.43
2019-05-11T04:10:49.560Z,61.27
2019-05-11T04:11:25.407Z,61.31
2019-05-11T04:12:01.336Z,61.53
2019-05-11T04:12:37.209Z,61.97
2019-05-11T04:13:13.004Z,61.81
2019-05-11T04:13:48.881Z,61.93
2019-05-11T04:14:24.700Z,62.38
2019-05-11T04:15:00.560Z,62.42
2019-05-11T04:15:36.395Z,62.25
2019-05-11T04:16:12.240Z,62.47
2019-05-11T04:16:48.093Z,62.80
2019-05-11T04:17:23.911Z,63.47
2019-05-11T04:17:59.872Z,63.43
2019-05-11T04:18:35.709Z,63.52
2019-05-11T04:19:11.576Z,62.88
2019-05-11T04:19:47.556Z,62.75
2019-05-11T04:20:23.418Z,62.93
2019-05-11T04:20:59.263Z,63.15
2019-05-11T04:21:35.100Z,63.31
2019-05-11T04:22:10.959Z,63.24
2019-05-11T04:22:46.816Z,63.18
2019-05-11T04:23:22.637Z,63.45
2019-05-11T04:23:58.493Z,63.36
2019-05-11T04:24:34.310Z,63.21
2019-05-11T04:25:10.140Z,63.08
2019-05-11T04:25:45.986Z,62.79
2019-05-11T04:26:21.852Z,62.61
2019-05-11T04:26:57.688Z,62.51
2019-05-11T04:27:33.558Z,62.54
2019-05-11T04:28:09.477Z,62.48
2019-05-11T04:28:45.349Z,62.63
2019-05-11T04:29:21.195Z,62.35
2019-05-11T04:29:57.041Z,62.10
2019-05-11T04:30:32.927Z,62.12
2019-05-11T04:31:08.770Z,62.25
2019-05-11T04:31:44.592Z,62.29
2019-05-11T04:32:20.434Z,62.38
2019-05-11T04:32:56.289Z,62.57
2019-05-11T04:33:33.119Z,62.67
2019-05-11T04:34:09.396Z,62.77
2019-05-11T04:34:45.220Z,63.01
2019-05-11T04:35:21.124Z,62.97
2019-05-11T04:35:59.602Z,62.33
2019-05-11T04:36:35.450Z,61.98
2019-05-11T04:37:11.314Z,61.66
2019-05-11T04:37:47.182Z,61.69
2019-05-11T04:38:23.135Z,61.50
2019-05-11T04:38:58.982Z,61.30
2019-05-11T04:39:34.839Z,61.51
2019-05-11T04:40:10.682Z,61.47
2019-05-11T04:40:46.515Z,61.57
2019-05-11T04:41:22.341Z,61.41
2019-05-11T04:41:58.194Z,61.17
2019-05-11T04:42:51.822Z,60.76
2019-05-11T04:43:11.765Z,60.41
2019-05-11T04:43:47.615Z,60.16
2019-05-11T04:44:23.447Z,59.88
2019-05-11T04:45:01.429Z,59.68
2019-05-11T04:45:37.236Z,59.08
2019-05-11T04:46:14.607Z,58.68
2019-05-11T04:46:50.464Z,58.42
2019-05-11T04:47:26.295Z,58.08
2019-05-11T04:48:02.196Z,57.70
2019-05-11T04:48:38.014Z,57.30
2019-05-11T04:49:13.832Z,56.94
2019-05-11T04:49:49.706Z,56.39
2019-05-11T04:50:26.917Z,56.32
2019-05-11T04:51:02.755Z,56.30
2019-05-11T04:51:38.632Z,56.07
2019-05-11T04:52:14.565Z,56.00
2019-05-11T04:52:50.415Z,56.37
2019-05-11T04:53:26.253Z,56.45
2019-05-11T04:54:02.205Z,56.23
2019-05-11T04:54:38.096Z,56.24
2019-05-11T04:55:14.119Z,55.72
2019-05-11T04:55:50.012Z,55.36
2019-05-11T04:56:25.841Z,55.04
2019-05-11T04:57:01.701Z,54.28
2019-05-11T04:57:37.537Z,54.28
2019-05-11T04:58:13.515Z,54.34
2019-05-11T04:58:49.385Z,53.65
2019-05-11T04:59:25.229Z,53.45
2019-05-11T05:00:01.085Z,53.49
2019-05-11T05:00:36.923Z,53.12
2019-05-11T05:01:12.762Z,52.50
2019-05-11T05:01:48.681Z,52.72
2019-05-11T05:02:27.191Z,53.12
2019-05-11T05:03:02.311Z,53.31
2019-05-11T05:03:41.145Z,53.25
2019-05-11T05:04:15.943Z,53.34
2019-05-11T05:04:51.874Z,52.77
2019-05-11T05:05:27.736Z,52.45
2019-05-11T05:06:20.890Z,52.47
2019-05-11T05:06:41.282Z,52.21
2019-05-11T05:07:17.125Z,52.47
2019-05-11T05:07:52.959Z,52.10
2019-05-11T05:08:28.773Z,52.19
2019-05-11T05:09:06.967Z,52.23
2019-05-11T05:09:44.779Z,52.30
2019-05-11T05:10:22.338Z,52.50
2019-05-11T05:11:00.539Z,52.97
2019-05-11T05:11:36.651Z,52.85
2019-05-11T05:12:15.509Z,52.95
2019-05-11T05:12:53.322Z,52.76
2019-05-11T05:13:31.327Z,53.02
2019-05-11T05:14:08.119Z,53.38
2019-05-11T05:14:44.811Z,52.89
2019-05-11T05:15:20.745Z,52.75
2019-05-11T05:15:56.735Z,52.74
2019-05-11T05:16:33.987Z,52.83
2019-05-11T05:17:09.887Z,52.90
2019-05-11T05:17:45.727Z,53.21
2019-05-11T05:18:21.600Z,53.38
2019-05-11T05:18:59.573Z,52.80
2019-05-11T05:19:35.395Z,52.36
2019-05-11T05:20:11.291Z,52.79
2019-05-11T05:20:47.160Z,53.24
2019-05-11T05:21:23.133Z,53.66
2019-05-11T05:21:58.941Z,53.42
2019-05-11T05:22:34.733Z,53.30
2019-05-11T05:23:10.793Z,53.35
2019-05-11T05:23:46.779Z,53.48
2019-05-11T05:24:22.594Z,53.33
2019-05-11T05:24:58.478Z,53.19
2019-05-11T05:25:34.347Z,53.14
2019-05-11T05:26:10.350Z,53.28
2019-05-11T05:26:46.305Z,53.79
2019-05-11T05:27:22.144Z,54.21
2019-05-11T05:27:57.988Z,54.42
2019-05-11T05:28:33.829Z,54.51
2019-05-11T05:29:09.648Z,54.74
2019-05-11T05:29:45.532Z,55.25
2019-05-11T05:30:21.505Z,55.57
2019-05-11T05:30:57.384Z,55.66
2019-05-11T05:31:33.711Z,56.00
2019-05-11T05:32:09.674Z,56.44
2019-05-11T05:32:45.480Z,56.34
2019-05-11T05:33:21.322Z,55.97
2019-05-11T05:34:01.030Z,55.79
2019-05-11T05:34:34.839Z,55.43
2019-05-11T05:35:10.801Z,54.97
2019-05-11T05:35:46.732Z,54.97
2019-05-11T05:36:22.621Z,55.23
2019-05-11T05:36:58.461Z,55.79
2019-05-11T05:37:34.307Z,56.16
2019-05-11T05:38:10.229Z,56.40
2019-05-11T05:38:46.038Z,56.64
2019-05-11T05:39:21.977Z,56.40
2019-05-11T05:39:57.821Z,56.12
2019-05-11T05:40:33.698Z,56.20
2019-05-11T05:41:09.524Z,56.34
2019-05-11T05:41:56.688Z,56.58
2019-05-11T05:42:23.026Z,57.05
2019-05-11T05:42:58.869Z,57.07
2019-05-11T05:43:34.668Z,57.16
2019-05-11T05:44:10.598Z,57.21
2019-05-11T05:44:46.422Z,57.44
2019-05-11T05:45:22.266Z,57.63
2019-05-11T05:45:58.089Z,57.70
2019-05-11T05:46:33.915Z,57.70
2019-05-11T05:47:09.727Z,57.67
2019-05-11T05:47:45.655Z,57.65
2019-05-11T05:48:21.501Z,57.83
2019-05-11T05:48:57.323Z,57.92
2019-05-11T05:49:33.924Z,58.62
2019-05-11T05:50:09.901Z,59.35
2019-05-11T05:50:45.753Z,59.69
2019-05-11T05:51:21.585Z,59.79
2019-05-11T05:51:58.317Z,60.25
2019-05-11T05:52:35.719Z,60.33
2019-05-11T05:53:11.579Z,61.03
2019-05-11T05:53:47.388Z,61.38
2019-05-11T05:54:23.348Z,61.41
2019-05-11T05:54:59.176Z,61.56
2019-05-11T05:55:35.052Z,61.80
2019-05-11T05:56:11.929Z,61.96
2019-05-11T05:56:47.942Z,62.47
2019-05-11T05:57:23.764Z,62.55
2019-05-11T05:57:59.601Z,62.61
2019-05-11T05:58:35.516Z,62.89
2019-05-11T05:59:11.437Z,63.19
2019-05-11T05:59:47.336Z,63.22
2019-05-11T06:00:23.298Z,63.43
2019-05-11T06:00:59.097Z,64.31
2019-05-11T06:01:34.913Z,64.80
2019-05-11T06:02:11.573Z,64.93
2019-05-11T06:02:47.466Z,65.58
2019-05-11T06:03:23.314Z,66.51
2019-05-11T06:03:59.200Z,67.85
2019-05-11T06:04:35.057Z,69.12
2019-05-11T06:05:10.979Z,69.47
2019-05-11T06:05:47.435Z,70.44
2019-05-11T06:06:23.290Z,70.79
2019-05-11T06:06:59.121Z,72.30
2019-05-11T06:07:34.997Z,72.51
2019-05-11T06:08:10.850Z,72.84
2019-05-11T06:08:49.025Z,73.13
2019-05-11T06:09:24.938Z,73.48
2019-05-11T06:10:00.954Z,73.77
2019-05-11T06:10:37.219Z,74.15
2019-05-11T06:11:13.172Z,74.82
2019-05-11T06:11:49.062Z,75.29
2019-05-11T06:12:24.905Z,75.41
2019-05-11T06:13:00.760Z,75.34
2019-05-11T06:13:45.193Z,75.23
2019-05-11T06:14:14.257Z,75.46
2019-05-11T06:14:50.116Z,75.74
2019-05-11T06:15:26.095Z,75.80
2019-05-11T06:16:01.908Z,75.92
2019-05-11T06:16:37.747Z,76.06
2019-05-11T06:17:15.415Z,76.24
2019-05-11T06:17:51.248Z,76.45
2019-05-11T06:18:27.132Z,77.07
2019-05-11T06:19:03.479Z,77.07
2019-05-11T06:19:39.349Z,77.16
2019-05-11T06:20:15.329Z,77.40
2019-05-11T06:20:51.169Z,77.59
2019-05-11T06:21:27.015Z,78.11
2019-05-11T06:22:02.882Z,78.01
2019-05-11T06:22:38.726Z,77.97
2019-05-11T06:23:14.580Z,77.93
2019-05-11T06:23:50.486Z,77.92
2019-05-11T06:24:26.297Z,78.19
2019-05-11T06:25:02.150Z,78.63
2019-05-11T06:25:37.993Z,78.50
2019-05-11T06:26:13.869Z,79.04
2019-05-11T06:26:49.763Z,79.68
2019-05-11T06:27:25.662Z,80.03
2019-05-11T06:28:01.544Z,79.89
2019-05-11T06:28:37.420Z,79.75
2019-05-11T06:29:14.166Z,79.58
2019-05-11T06:29:50.001Z,79.49
2019-05-11T06:30:25.832Z,79.24
2019-05-11T06:31:01.673Z,79.24
2019-05-11T06:31:37.533Z,79.15
2019-05-11T06:32:13.363Z,78.81
2019-05-11T06:32:49.325Z,78.77
2019-05-11T06:33:25.198Z,78.79
2019-05-11T06:34:01.045Z,78.67
2019-05-11T06:34:36.907Z,78.59
2019-05-11T06:35:12.846Z,78.16
2019-05-11T06:35:48.721Z,77.90
2019-05-11T06:36:24.732Z,77.38
2019-05-11T06:37:00.597Z,77.28
2019-05-11T06:37:38.220Z,77.04
2019-05-11T06:38:14.322Z,77.01
2019-05-11T06:38:50.271Z,77.01
2019-05-11T06:39:26.092Z,76.96
2019-05-11T06:40:01.955Z,76.95
2019-05-11T06:40:37.872Z,76.94
2019-05-11T06:41:13.715Z,76.98
2019-05-11T06:41:50.579Z,77.06
2019-05-11T06:42:27.506Z,77.13
2019-05-11T06:43:03.470Z,77.11
2019-05-11T06:43:39.358Z,77.07
2019-05-11T06:44:15.267Z,77.00
2019-05-11T06:44:51.164Z,76.60
2019-05-11T06:45:27.001Z,76.25
2019-05-11T06:46:03.413Z,76.32
2019-05-11T06:46:39.263Z,76.33
2019-05-11T06:47:15.138Z,76.42
2019-05-11T06:47:53.157Z,76.66
2019-05-11T06:48:28.971Z,76.54
2019-05-11T06:49:04.826Z,76.66
2019-05-11T06:49:40.670Z,76.96
2019-05-11T06:50:16.554Z,77.22
2019-05-11T06:50:53.499Z,77.07
2019-05-11T06:51:29.336Z,77.02
2019-05-11T06:52:05.283Z,77.74
2019-05-11T06:52:41.154Z,77.52
2019-05-11T06:53:16.977Z,77.43
2019-05-11T06:53:52.917Z,77.34
2019-05-11T06:54:28.779Z,77.04
2019-05-11T06:55:04.597Z,76.57
2019-05-11T06:55:40.411Z,76.38
2019-05-11T06:56:16.316Z,76.28
2019-05-11T06:56:52.148Z,76.20
2019-05-11T06:57:27.966Z,76.70
2019-05-11T06:58:03.831Z,76.49
2019-05-11T06:58:39.671Z,76.23
2019-05-11T06:59:15.522Z,76.03
2019-05-11T06:59:51.636Z,75.81
2019-05-11T07:00:27.478Z,75.36
2019-05-11T07:01:03.301Z,75.11
2019-05-11T07:01:39.151Z,74.69
2019-05-11T07:02:14.976Z,74.45
2019-05-11T07:02:50.827Z,74.14
2019-05-11T07:03:26.701Z,74.02
2019-05-11T07:04:02.608Z,74.15
2019-05-11T07:04:38.464Z,74.11
2019-05-11T07:05:14.318Z,73.81
2019-05-11T07:05:50.148Z,73.40
2019-05-11T07:06:30.120Z,73.14
2019-05-11T07:07:03.664Z,73.19
2019-05-11T07:07:47.468Z,73.08
2019-05-11T07:08:18.417Z,72.95
2019-05-11T07:08:54.271Z,72.93
2019-05-11T07:09:30.139Z,72.69
2019-05-11T07:10:06.359Z,71.87
2019-05-11T07:10:42.250Z,71.81
2019-05-11T07:11:18.119Z,72.74
2019-05-11T07:11:54.047Z,73.48
2019-05-11T07:12:29.933Z,73.16
2019-05-11T07:13:05.751Z,72.36
2019-05-11T07:13:42.100Z,71.64
2019-05-11T07:14:20.980Z,71.22
2019-05-11T07:14:55.663Z,70.54
2019-05-11T07:15:31.529Z,67.31
2019-05-11T07:16:07.416Z,66.87
2019-05-11T07:16:43.971Z,66.35
2019-05-11T07:17:19.876Z,64.68
2019-05-11T07:17:55.847Z,64.66
2019-05-11T07:18:31.881Z,64.45
2019-05-11T07:19:07.722Z,64.74
2019-05-11T07:19:47.193Z,64.57
2019-05-11T07:20:21.200Z,65.12
2019-05-11T07:20:57.052Z,64.64
2019-05-11T07:21:32.871Z,64.27
2019-05-11T07:22:08.692Z,64.57
2019-05-11T07:22:44.577Z,64.70
2019-05-11T07:23:22.832Z,64.85
2019-05-11T07:23:58.777Z,65.11
2019-05-11T07:24:34.590Z,65.29
2019-05-11T07:25:10.467Z,65.71
2019-05-11T07:25:46.293Z,65.85
2019-05-11T07:26:22.138Z,65.90
2019-05-11T07:26:58.131Z,66.08
2019-05-11T07:27:33.993Z,66.04
2019-05-11T07:28:09.827Z,66.25
2019-05-11T07:28:45.704Z,66.57
2019-05-11T07:29:21.658Z,66.63
2019-05-11T07:29:57.567Z,66.57
2019-05-11T07:30:33.537Z,66.20
2019-05-11T07:31:09.378Z,66.03
2019-05-11T07:31:45.347Z,65.98
2019-05-11T07:32:25.774Z,66.03
2019-05-11T07:33:00.984Z,66.44
2019-05-11T07:33:37.988Z,66.11
2019-05-11T07:34:13.959Z,66.17
2019-05-11T07:34:49.823Z,66.40
2019-05-11T07:35:27.845Z,65.98
2019-05-11T07:36:03.353Z,65.86
2019-05-11T07:36:39.168Z,65.89
2019-05-11T07:37:18.401Z,66.19
2019-05-11T07:37:53.961Z,66.46
2019-05-11T07:38:31.341Z,66.96
2019-05-11T07:39:08.454Z,67.14
2019-05-11T07:39:44.366Z,67.01
2019-05-11T07:40:20.265Z,66.18
2019-05-11T07:40:58.263Z,65.55
2019-05-11T07:41:34.264Z,65.65
2019-05-11T07:42:10.222Z,65.83
2019-05-11T07:42:48.376Z,65.83
2019-05-11T07:43:23.850Z,65.75
2019-05-11T07:43:59.852Z,65.43
2019-05-11T07:44:38.699Z,65.34
2019-05-11T07:45:13.436Z,65.05